sensor_id;sensor_type;location;lat;lon;timestamp;P1;durP1;ratioP1;P2;durP2;ratioP2
80293;SDS011;69594;43.516;1.498;2023-12-04T00:00:04;2.87;;;1.47;;
80293;SDS011;69594;43.516;1.498;2023-12-04T00:02:29;4.70;;;1.48;;
80293;SDS011;69594;43.516;1.498;2023-12-04T00:04:55;2.97;;;1.50;;
80293;SDS011;69594;43.516;1.498;2023-12-04T00:07:20;2.90;;;1.50;;
80293;SDS011;69594;43.516;1.498;2023-12-04T00:09:45;3.47;;;1.30;;
80293;SDS011;69594;43.516;1.498;2023-12-04T00:12:11;3.17;;;1.27;;
80293;SDS011;69594;43.516;1.498;2023-12-04T00:14:36;3.30;;;1.50;;
80293;SDS011;69594;43.516;1.498;2023-12-04T00:17:01;3.00;;;1.20;;
80293;SDS011;69594;43.516;1.498;2023-12-04T00:19:27;4.28;;;1.45;;
80293;SDS011;69594;43.516;1.498;2023-12-04T00:21:52;2.65;;;1.40;;
80293;SDS011;69594;43.516;1.498;2023-12-04T00:24:18;2.43;;;1.20;;
80293;SDS011;69594;43.516;1.498;2023-12-04T00:26:43;3.53;;;1.37;;
80293;SDS011;69594;43.516;1.498;2023-12-04T00:29:08;4.00;;;1.40;;
80293;SDS011;69594;43.516;1.498;2023-12-04T00:31:33;3.87;;;1.40;;
80293;SDS011;69594;43.516;1.498;2023-12-04T00:33:59;4.53;;;1.57;;
80293;SDS011;69594;43.516;1.498;2023-12-04T00:36:24;2.37;;;1.40;;
80293;SDS011;69594;43.516;1.498;2023-12-04T00:38:49;2.50;;;1.40;;
80293;SDS011;69594;43.516;1.498;2023-12-04T00:41:15;3.33;;;1.38;;
80293;SDS011;69594;43.516;1.498;2023-12-04T00:43:40;3.60;;;1.67;;
80293;SDS011;69594;43.516;1.498;2023-12-04T00:46:05;3.73;;;1.60;;
80293;SDS011;69594;43.516;1.498;2023-12-04T00:48:31;3.27;;;1.60;;
80293;SDS011;69594;43.516;1.498;2023-12-04T00:50:57;2.30;;;1.40;;
80293;SDS011;69594;43.516;1.498;2023-12-04T00:53:22;3.70;;;1.40;;
80293;SDS011;69594;43.516;1.498;2023-12-04T00:55:48;2.63;;;1.30;;
80293;SDS011;69594;43.516;1.498;2023-12-04T00:58:13;2.97;;;1.27;;
80293;SDS011;69594;43.516;1.498;2023-12-04T01:00:38;3.73;;;1.50;;
80293;SDS011;69594;43.516;1.498;2023-12-04T01:03:04;3.30;;;1.63;;
80293;SDS011;69594;43.516;1.498;2023-12-04T01:05:29;3.23;;;1.50;;
80293;SDS011;69594;43.516;1.498;2023-12-04T01:07:54;2.60;;;1.30;;
80293;SDS011;69594;43.516;1.498;2023-12-04T01:10:20;3.47;;;1.57;;
80293;SDS011;69594;43.516;1.498;2023-12-04T01:12:45;4.47;;;1.40;;
80293;SDS011;69594;43.516;1.498;2023-12-04T01:15:10;3.80;;;1.83;;
80293;SDS011;69594;43.516;1.498;2023-12-04T01:17:35;4.43;;;1.80;;
80293;SDS011;69594;43.516;1.498;2023-12-04T01:20:01;3.07;;;1.47;;
80293;SDS011;69594;43.516;1.498;2023-12-04T01:22:26;4.10;;;1.80;;
80293;SDS011;69594;43.516;1.498;2023-12-04T01:24:51;3.03;;;1.50;;
80293;SDS011;69594;43.516;1.498;2023-12-04T01:27:17;3.37;;;1.63;;
80293;SDS011;69594;43.516;1.498;2023-12-04T01:29:42;3.63;;;1.50;;
80293;SDS011;69594;43.516;1.498;2023-12-04T01:32:07;3.17;;;1.80;;
80293;SDS011;69594;43.516;1.498;2023-12-04T01:34:33;3.50;;;1.40;;
80293;SDS011;69594;43.516;1.498;2023-12-04T01:36:58;5.70;;;1.60;;
80293;SDS011;69594;43.516;1.498;2023-12-04T01:39:23;4.17;;;1.83;;
80293;SDS011;69594;43.516;1.498;2023-12-04T01:41:48;6.33;;;1.73;;
80293;SDS011;69594;43.516;1.498;2023-12-04T01:44:14;3.90;;;1.33;;
80293;SDS011;69594;43.516;1.498;2023-12-04T01:46:39;3.57;;;1.77;;
80293;SDS011;69594;43.516;1.498;2023-12-04T01:49:05;4.15;;;1.40;;
80293;SDS011;69594;43.516;1.498;2023-12-04T01:51:31;2.70;;;1.23;;
80293;SDS011;69594;43.516;1.498;2023-12-04T01:53:58;3.00;;;1.47;;
80293;SDS011;69594;43.516;1.498;2023-12-04T01:56:25;4.90;;;1.70;;
80293;SDS011;69594;43.516;1.498;2023-12-04T01:58:50;3.67;;;1.93;;
80293;SDS011;69594;43.516;1.498;2023-12-04T02:01:16;5.60;;;1.50;;
80293;SDS011;69594;43.516;1.498;2023-12-04T02:03:42;2.92;;;1.33;;
80293;SDS011;69594;43.516;1.498;2023-12-04T02:06:08;3.03;;;1.57;;
80293;SDS011;69594;43.516;1.498;2023-12-04T02:08:34;2.67;;;1.50;;
80293;SDS011;69594;43.516;1.498;2023-12-04T02:11:00;3.63;;;1.67;;
80293;SDS011;69594;43.516;1.498;2023-12-04T02:13:27;6.65;;;1.90;;
80293;SDS011;69594;43.516;1.498;2023-12-04T02:15:53;5.20;;;2.00;;
80293;SDS011;69594;43.516;1.498;2023-12-04T02:18:19;2.20;;;1.50;;
80293;SDS011;69594;43.516;1.498;2023-12-04T02:20:45;4.10;;;1.60;;
80293;SDS011;69594;43.516;1.498;2023-12-04T02:23:10;8.53;;;2.10;;
80293;SDS011;69594;43.516;1.498;2023-12-04T02:25:36;4.63;;;1.87;;
80293;SDS011;69594;43.516;1.498;2023-12-04T02:28:02;5.70;;;1.80;;
80293;SDS011;69594;43.516;1.498;2023-12-04T02:30:29;7.53;;;2.45;;
80293;SDS011;69594;43.516;1.498;2023-12-04T02:32:55;8.02;;;2.10;;
80293;SDS011;69594;43.516;1.498;2023-12-04T02:35:22;4.67;;;2.00;;
80293;SDS011;69594;43.516;1.498;2023-12-04T02:37:49;5.72;;;2.22;;
80293;SDS011;69594;43.516;1.498;2023-12-04T02:40:15;3.33;;;1.80;;
80293;SDS011;69594;43.516;1.498;2023-12-04T02:42:40;5.72;;;1.63;;
80293;SDS011;69594;43.516;1.498;2023-12-04T02:45:06;4.27;;;2.13;;
80293;SDS011;69594;43.516;1.498;2023-12-04T02:47:32;6.05;;;2.25;;
80293;SDS011;69594;43.516;1.498;2023-12-04T02:49:57;6.07;;;1.70;;
80293;SDS011;69594;43.516;1.498;2023-12-04T02:52:22;5.70;;;1.63;;
80293;SDS011;69594;43.516;1.498;2023-12-04T02:54:48;3.23;;;1.50;;
80293;SDS011;69594;43.516;1.498;2023-12-04T02:57:13;4.37;;;2.23;;
80293;SDS011;69594;43.516;1.498;2023-12-04T02:59:38;6.20;;;2.10;;
80293;SDS011;69594;43.516;1.498;2023-12-04T03:02:04;7.27;;;2.30;;
80293;SDS011;69594;43.516;1.498;2023-12-04T03:04:29;5.63;;;2.17;;
80293;SDS011;69594;43.516;1.498;2023-12-04T03:06:55;4.35;;;1.92;;
80293;SDS011;69594;43.516;1.498;2023-12-04T03:09:20;5.33;;;2.00;;
80293;SDS011;69594;43.516;1.498;2023-12-04T03:11:45;5.37;;;1.90;;
80293;SDS011;69594;43.516;1.498;2023-12-04T03:14:10;4.07;;;1.90;;
80293;SDS011;69594;43.516;1.498;2023-12-04T03:16:36;5.20;;;1.93;;
80293;SDS011;69594;43.516;1.498;2023-12-04T03:19:01;3.33;;;2.10;;
80293;SDS011;69594;43.516;1.498;2023-12-04T03:21:26;5.27;;;1.90;;
80293;SDS011;69594;43.516;1.498;2023-12-04T03:23:53;4.63;;;2.15;;
80293;SDS011;69594;43.516;1.498;2023-12-04T03:26:19;4.77;;;1.90;;
80293;SDS011;69594;43.516;1.498;2023-12-04T03:28:44;4.47;;;1.90;;
80293;SDS011;69594;43.516;1.498;2023-12-04T03:31:09;5.97;;;1.80;;
80293;SDS011;69594;43.516;1.498;2023-12-04T03:33:34;4.03;;;1.80;;
80293;SDS011;69594;43.516;1.498;2023-12-04T03:36:00;5.87;;;1.87;;
80293;SDS011;69594;43.516;1.498;2023-12-04T03:38:25;6.07;;;2.05;;
80293;SDS011;69594;43.516;1.498;2023-12-04T03:40:51;7.53;;;1.77;;
80293;SDS011;69594;43.516;1.498;2023-12-04T03:43:16;4.03;;;2.00;;
80293;SDS011;69594;43.516;1.498;2023-12-04T03:45:41;5.67;;;2.20;;
80293;SDS011;69594;43.516;1.498;2023-12-04T03:48:06;4.87;;;1.90;;
80293;SDS011;69594;43.516;1.498;2023-12-04T03:50:32;4.93;;;2.30;;
80293;SDS011;69594;43.516;1.498;2023-12-04T03:52:57;4.00;;;1.93;;
80293;SDS011;69594;43.516;1.498;2023-12-04T03:55:22;7.20;;;2.93;;
80293;SDS011;69594;43.516;1.498;2023-12-04T03:57:48;7.15;;;1.90;;
80293;SDS011;69594;43.516;1.498;2023-12-04T04:00:13;5.82;;;2.13;;
80293;SDS011;69594;43.516;1.498;2023-12-04T04:02:39;5.80;;;1.83;;
80293;SDS011;69594;43.516;1.498;2023-12-04T04:05:04;7.05;;;3.53;;
80293;SDS011;69594;43.516;1.498;2023-12-04T04:07:30;7.57;;;2.10;;
80293;SDS011;69594;43.516;1.498;2023-12-04T04:09:56;4.53;;;2.10;;
80293;SDS011;69594;43.516;1.498;2023-12-04T04:12:21;6.60;;;2.43;;
80293;SDS011;69594;43.516;1.498;2023-12-04T04:14:46;5.78;;;2.05;;
80293;SDS011;69594;43.516;1.498;2023-12-04T04:17:12;8.70;;;2.00;;
80293;SDS011;69594;43.516;1.498;2023-12-04T04:19:37;6.03;;;2.23;;
80293;SDS011;69594;43.516;1.498;2023-12-04T04:22:02;6.20;;;2.30;;
80293;SDS011;69594;43.516;1.498;2023-12-04T04:24:28;6.77;;;2.23;;
80293;SDS011;69594;43.516;1.498;2023-12-04T04:26:54;11.27;;;2.75;;
80293;SDS011;69594;43.516;1.498;2023-12-04T04:29:19;4.90;;;1.90;;
80293;SDS011;69594;43.516;1.498;2023-12-04T04:31:44;6.50;;;2.10;;
80293;SDS011;69594;43.516;1.498;2023-12-04T04:34:09;4.47;;;2.03;;
80293;SDS011;69594;43.516;1.498;2023-12-04T04:36:35;7.20;;;2.30;;
80293;SDS011;69594;43.516;1.498;2023-12-04T04:39:00;7.90;;;2.20;;
80293;SDS011;69594;43.516;1.498;2023-12-04T04:41:26;5.70;;;2.60;;
80293;SDS011;69594;43.516;1.498;2023-12-04T04:43:51;5.33;;;1.90;;
80293;SDS011;69594;43.516;1.498;2023-12-04T04:46:16;6.70;;;2.43;;
80293;SDS011;69594;43.516;1.498;2023-12-04T04:48:42;4.73;;;2.23;;
80293;SDS011;69594;43.516;1.498;2023-12-04T04:51:07;7.43;;;2.60;;
80293;SDS011;69594;43.516;1.498;2023-12-04T04:53:32;6.50;;;3.23;;
80293;SDS011;69594;43.516;1.498;2023-12-04T04:55:58;5.57;;;2.20;;
80293;SDS011;69594;43.516;1.498;2023-12-04T04:58:23;8.90;;;2.23;;
80293;SDS011;69594;43.516;1.498;2023-12-04T05:00:49;5.53;;;2.37;;
80293;SDS011;69594;43.516;1.498;2023-12-04T05:03:14;6.57;;;2.30;;
80293;SDS011;69594;43.516;1.498;2023-12-04T05:05:39;4.77;;;1.97;;
80293;SDS011;69594;43.516;1.498;2023-12-04T05:08:05;5.63;;;2.23;;
80293;SDS011;69594;43.516;1.498;2023-12-04T05:10:30;6.17;;;2.77;;
80293;SDS011;69594;43.516;1.498;2023-12-04T05:12:55;5.50;;;2.42;;
80293;SDS011;69594;43.516;1.498;2023-12-04T05:15:21;4.53;;;2.30;;
80293;SDS011;69594;43.516;1.498;2023-12-04T05:17:46;8.87;;;2.50;;
80293;SDS011;69594;43.516;1.498;2023-12-04T05:20:12;7.90;;;2.90;;
80293;SDS011;69594;43.516;1.498;2023-12-04T05:22:37;5.37;;;2.67;;
80293;SDS011;69594;43.516;1.498;2023-12-04T05:25:02;8.80;;;2.73;;
80293;SDS011;69594;43.516;1.498;2023-12-04T05:27:28;7.87;;;3.20;;
80293;SDS011;69594;43.516;1.498;2023-12-04T05:29:53;7.63;;;3.00;;
80293;SDS011;69594;43.516;1.498;2023-12-04T05:32:18;5.03;;;2.70;;
80293;SDS011;69594;43.516;1.498;2023-12-04T05:34:44;7.57;;;3.47;;
80293;SDS011;69594;43.516;1.498;2023-12-04T05:37:09;6.40;;;2.90;;
80293;SDS011;69594;43.516;1.498;2023-12-04T05:39:34;9.10;;;2.83;;
80293;SDS011;69594;43.516;1.498;2023-12-04T05:41:59;10.63;;;3.50;;
80293;SDS011;69594;43.516;1.498;2023-12-04T05:44:25;6.15;;;2.90;;
80293;SDS011;69594;43.516;1.498;2023-12-04T05:46:50;7.68;;;2.80;;
80293;SDS011;69594;43.516;1.498;2023-12-04T05:49:15;9.13;;;2.80;;
80293;SDS011;69594;43.516;1.498;2023-12-04T05:51:41;6.90;;;2.73;;
80293;SDS011;69594;43.516;1.498;2023-12-04T05:54:06;7.50;;;2.90;;
80293;SDS011;69594;43.516;1.498;2023-12-04T05:56:31;7.13;;;2.73;;
80293;SDS011;69594;43.516;1.498;2023-12-04T05:58:57;7.57;;;3.33;;
80293;SDS011;69594;43.516;1.498;2023-12-04T06:01:22;6.32;;;2.83;;
80293;SDS011;69594;43.516;1.498;2023-12-04T06:03:47;6.87;;;2.77;;
80293;SDS011;69594;43.516;1.498;2023-12-04T06:06:13;8.77;;;3.20;;
80293;SDS011;69594;43.516;1.498;2023-12-04T06:08:38;6.10;;;3.03;;
80293;SDS011;69594;43.516;1.498;2023-12-04T06:11:03;9.10;;;2.83;;
80293;SDS011;69594;43.516;1.498;2023-12-04T06:13:29;9.70;;;2.80;;
80293;SDS011;69594;43.516;1.498;2023-12-04T06:15:54;10.77;;;2.60;;
80293;SDS011;69594;43.516;1.498;2023-12-04T06:18:19;9.07;;;3.20;;
80293;SDS011;69594;43.516;1.498;2023-12-04T06:20:45;6.70;;;3.00;;
80293;SDS011;69594;43.516;1.498;2023-12-04T06:23:11;5.73;;;2.20;;
80293;SDS011;69594;43.516;1.498;2023-12-04T06:25:37;8.27;;;2.58;;
80293;SDS011;69594;43.516;1.498;2023-12-04T06:28:03;7.65;;;2.47;;
80293;SDS011;69594;43.516;1.498;2023-12-04T06:30:29;6.82;;;2.72;;
80293;SDS011;69594;43.516;1.498;2023-12-04T06:32:55;8.93;;;3.20;;
80293;SDS011;69594;43.516;1.498;2023-12-04T06:35:20;7.90;;;2.50;;
80293;SDS011;69594;43.516;1.498;2023-12-04T06:37:47;6.85;;;2.50;;
80293;SDS011;69594;43.516;1.498;2023-12-04T06:40:13;7.47;;;2.37;;
80293;SDS011;69594;43.516;1.498;2023-12-04T06:42:39;9.70;;;2.90;;
80293;SDS011;69594;43.516;1.498;2023-12-04T06:45:05;9.10;;;2.90;;
80293;SDS011;69594;43.516;1.498;2023-12-04T06:47:31;6.13;;;2.58;;
80293;SDS011;69594;43.516;1.498;2023-12-04T06:49:56;6.63;;;2.80;;
80293;SDS011;69594;43.516;1.498;2023-12-04T06:52:22;6.47;;;2.70;;
80293;SDS011;69594;43.516;1.498;2023-12-04T06:54:47;6.93;;;3.83;;
80293;SDS011;69594;43.516;1.498;2023-12-04T06:57:12;7.50;;;3.05;;
80293;SDS011;69594;43.516;1.498;2023-12-04T06:59:40;7.65;;;2.55;;
80293;SDS011;69594;43.516;1.498;2023-12-04T07:02:05;11.45;;;3.20;;
80293;SDS011;69594;43.516;1.498;2023-12-04T07:04:31;8.87;;;3.17;;
80293;SDS011;69594;43.516;1.498;2023-12-04T07:06:56;9.10;;;2.95;;
80293;SDS011;69594;43.516;1.498;2023-12-04T07:09:23;9.10;;;3.70;;
80293;SDS011;69594;43.516;1.498;2023-12-04T07:11:48;6.93;;;2.72;;
80293;SDS011;69594;43.516;1.498;2023-12-04T07:14:13;8.48;;;3.42;;
80293;SDS011;69594;43.516;1.498;2023-12-04T07:16:42;9.83;;;3.87;;
80293;SDS011;69594;43.516;1.498;2023-12-04T07:19:08;8.02;;;3.03;;
80293;SDS011;69594;43.516;1.498;2023-12-04T07:21:34;7.93;;;2.80;;
80293;SDS011;69594;43.516;1.498;2023-12-04T07:24:00;10.05;;;3.10;;
80293;SDS011;69594;43.516;1.498;2023-12-04T07:26:25;7.17;;;3.50;;
80293;SDS011;69594;43.516;1.498;2023-12-04T07:28:50;9.57;;;2.97;;
80293;SDS011;69594;43.516;1.498;2023-12-04T07:31:15;10.60;;;4.10;;
80293;SDS011;69594;43.516;1.498;2023-12-04T07:33:41;11.27;;;2.80;;
80293;SDS011;69594;43.516;1.498;2023-12-04T07:36:06;6.50;;;2.60;;
80293;SDS011;69594;43.516;1.498;2023-12-04T07:38:32;5.72;;;2.67;;
80293;SDS011;69594;43.516;1.498;2023-12-04T07:40:57;9.75;;;2.90;;
80293;SDS011;69594;43.516;1.498;2023-12-04T07:43:22;7.72;;;3.13;;
80293;SDS011;69594;43.516;1.498;2023-12-04T07:45:48;11.80;;;3.15;;
80293;SDS011;69594;43.516;1.498;2023-12-04T07:48:13;7.30;;;2.57;;
80293;SDS011;69594;43.516;1.498;2023-12-04T07:50:38;7.93;;;2.90;;
80293;SDS011;69594;43.516;1.498;2023-12-04T07:53:04;5.90;;;3.37;;
80293;SDS011;69594;43.516;1.498;2023-12-04T07:55:30;6.72;;;2.95;;
80293;SDS011;69594;43.516;1.498;2023-12-04T07:57:56;8.13;;;2.50;;
80293;SDS011;69594;43.516;1.498;2023-12-04T08:00:21;8.33;;;3.20;;
80293;SDS011;69594;43.516;1.498;2023-12-04T08:02:47;7.10;;;3.00;;
80293;SDS011;69594;43.516;1.498;2023-12-04T08:05:13;11.13;;;3.33;;
80293;SDS011;69594;43.516;1.498;2023-12-04T08:07:38;8.90;;;3.13;;
80293;SDS011;69594;43.516;1.498;2023-12-04T08:10:04;9.23;;;3.53;;
80293;SDS011;69594;43.516;1.498;2023-12-04T08:12:31;11.40;;;4.43;;
80293;SDS011;69594;43.516;1.498;2023-12-04T08:14:56;9.10;;;4.20;;
80293;SDS011;69594;43.516;1.498;2023-12-04T08:17:22;13.67;;;5.43;;
80293;SDS011;69594;43.516;1.498;2023-12-04T08:19:47;14.87;;;4.63;;
80293;SDS011;69594;43.516;1.498;2023-12-04T08:22:13;12.13;;;4.97;;
80293;SDS011;69594;43.516;1.498;2023-12-04T08:24:38;10.67;;;4.93;;
80293;SDS011;69594;43.516;1.498;2023-12-04T08:27:03;11.40;;;5.17;;
80293;SDS011;69594;43.516;1.498;2023-12-04T08:29:29;16.65;;;6.03;;
80293;SDS011;69594;43.516;1.498;2023-12-04T08:31:54;16.92;;;7.18;;
80293;SDS011;69594;43.516;1.498;2023-12-04T08:34:19;12.50;;;6.23;;
80293;SDS011;69594;43.516;1.498;2023-12-04T08:36:44;10.30;;;4.97;;
80293;SDS011;69594;43.516;1.498;2023-12-04T08:39:10;14.30;;;5.00;;
80293;SDS011;69594;43.516;1.498;2023-12-04T08:41:35;13.23;;;5.00;;
80293;SDS011;69594;43.516;1.498;2023-12-04T08:44:00;12.97;;;4.83;;
80293;SDS011;69594;43.516;1.498;2023-12-04T08:46:26;14.90;;;5.10;;
80293;SDS011;69594;43.516;1.498;2023-12-04T08:48:51;15.33;;;5.60;;
80293;SDS011;69594;43.516;1.498;2023-12-04T08:51:16;12.83;;;4.40;;
80293;SDS011;69594;43.516;1.498;2023-12-04T08:53:42;9.57;;;4.05;;
80293;SDS011;69594;43.516;1.498;2023-12-04T08:56:08;11.10;;;4.43;;
80293;SDS011;69594;43.516;1.498;2023-12-04T08:58:34;12.38;;;6.15;;
80293;SDS011;69594;43.516;1.498;2023-12-04T09:00:59;12.23;;;4.67;;
80293;SDS011;69594;43.516;1.498;2023-12-04T09:03:24;10.50;;;4.50;;
80293;SDS011;69594;43.516;1.498;2023-12-04T09:05:50;12.87;;;4.60;;
80293;SDS011;69594;43.516;1.498;2023-12-04T09:08:16;9.73;;;4.20;;
80293;SDS011;69594;43.516;1.498;2023-12-04T09:10:42;10.70;;;4.10;;
80293;SDS011;69594;43.516;1.498;2023-12-04T09:13:07;13.13;;;4.22;;
80293;SDS011;69594;43.516;1.498;2023-12-04T09:15:33;13.83;;;5.13;;
80293;SDS011;69594;43.516;1.498;2023-12-04T09:17:58;9.13;;;3.70;;
80293;SDS011;69594;43.516;1.498;2023-12-04T09:20:24;7.80;;;3.58;;
80293;SDS011;69594;43.516;1.498;2023-12-04T09:22:50;9.48;;;3.50;;
80293;SDS011;69594;43.516;1.498;2023-12-04T09:25:16;6.65;;;2.75;;
80293;SDS011;69594;43.516;1.498;2023-12-04T09:27:41;12.97;;;3.93;;
80293;SDS011;69594;43.516;1.498;2023-12-04T09:30:06;8.17;;;3.57;;
80293;SDS011;69594;43.516;1.498;2023-12-04T09:32:32;11.60;;;3.67;;
80293;SDS011;69594;43.516;1.498;2023-12-04T09:34:57;18.70;;;5.90;;
80293;SDS011;69594;43.516;1.498;2023-12-04T09:37:22;18.97;;;4.93;;
80293;SDS011;69594;43.516;1.498;2023-12-04T09:39:48;8.13;;;3.33;;
80293;SDS011;69594;43.516;1.498;2023-12-04T09:42:14;7.57;;;3.85;;
80293;SDS011;69594;43.516;1.498;2023-12-04T09:44:40;8.50;;;3.20;;
80293;SDS011;69594;43.516;1.498;2023-12-04T09:47:06;5.28;;;2.60;;
80293;SDS011;69594;43.516;1.498;2023-12-04T09:49:32;12.48;;;3.10;;
80293;SDS011;69594;43.516;1.498;2023-12-04T09:51:58;7.47;;;2.97;;
80293;SDS011;69594;43.516;1.498;2023-12-04T09:54:24;12.05;;;3.40;;
80293;SDS011;69594;43.516;1.498;2023-12-04T09:56:49;6.70;;;2.60;;
80293;SDS011;69594;43.516;1.498;2023-12-04T09:59:15;8.55;;;2.83;;
80293;SDS011;69594;43.516;1.498;2023-12-04T10:01:40;9.13;;;2.90;;
80293;SDS011;69594;43.516;1.498;2023-12-04T10:04:07;9.73;;;2.97;;
80293;SDS011;69594;43.516;1.498;2023-12-04T10:06:33;7.15;;;2.28;;
80293;SDS011;69594;43.516;1.498;2023-12-04T10:08:58;6.35;;;2.05;;
80293;SDS011;69594;43.516;1.498;2023-12-04T10:11:24;9.33;;;2.80;;
80293;SDS011;69594;43.516;1.498;2023-12-04T10:13:51;4.65;;;2.00;;
80293;SDS011;69594;43.516;1.498;2023-12-04T10:16:32;6.43;;;1.90;;
80293;SDS011;69594;43.516;1.498;2023-12-04T10:19:13;5.47;;;1.70;;
80293;SDS011;69594;43.516;1.498;2023-12-04T10:21:38;4.55;;;1.70;;
80293;SDS011;69594;43.516;1.498;2023-12-04T10:24:04;6.00;;;1.63;;
80293;SDS011;69594;43.516;1.498;2023-12-04T10:26:29;6.00;;;1.70;;
80293;SDS011;69594;43.516;1.498;2023-12-04T10:28:58;7.47;;;1.43;;
80293;SDS011;69594;43.516;1.498;2023-12-04T10:31:25;3.03;;;1.52;;
80293;SDS011;69594;43.516;1.498;2023-12-04T10:33:50;3.77;;;1.10;;
80293;SDS011;69594;43.516;1.498;2023-12-04T10:36:16;4.50;;;1.50;;
80293;SDS011;69594;43.516;1.498;2023-12-04T10:38:42;5.85;;;1.42;;
80293;SDS011;69594;43.516;1.498;2023-12-04T10:41:12;5.33;;;1.30;;
80293;SDS011;69594;43.516;1.498;2023-12-04T10:43:38;6.93;;;2.30;;
80293;SDS011;69594;43.516;1.498;2023-12-04T10:46:11;4.50;;;1.40;;
80293;SDS011;69594;43.516;1.498;2023-12-04T10:48:37;4.97;;;1.60;;
80293;SDS011;69594;43.516;1.498;2023-12-04T10:51:03;5.63;;;1.60;;
80293;SDS011;69594;43.516;1.498;2023-12-04T10:53:31;6.70;;;1.60;;
80293;SDS011;69594;43.516;1.498;2023-12-04T10:55:58;6.15;;;1.58;;
80293;SDS011;69594;43.516;1.498;2023-12-04T10:58:24;3.75;;;1.23;;
80293;SDS011;69594;43.516;1.498;2023-12-04T11:00:51;4.03;;;1.23;;
80293;SDS011;69594;43.516;1.498;2023-12-04T11:03:28;3.30;;;1.40;;
80293;SDS011;69594;43.516;1.498;2023-12-04T11:05:59;5.25;;;1.60;;
80293;SDS011;69594;43.516;1.498;2023-12-04T11:08:24;3.75;;;1.15;;
80293;SDS011;69594;43.516;1.498;2023-12-04T11:10:57;5.70;;;1.50;;
80293;SDS011;69594;43.516;1.498;2023-12-04T11:13:26;11.43;;;1.75;;
80293;SDS011;69594;43.516;1.498;2023-12-04T11:15:52;3.90;;;1.10;;
80293;SDS011;69594;43.516;1.498;2023-12-04T11:18:21;3.08;;;1.27;;
80293;SDS011;69594;43.516;1.498;2023-12-04T11:20:50;4.93;;;1.10;;
80293;SDS011;69594;43.516;1.498;2023-12-04T11:23:16;4.32;;;1.20;;
80293;SDS011;69594;43.516;1.498;2023-12-04T11:25:41;3.20;;;1.10;;
80293;SDS011;69594;43.516;1.498;2023-12-04T11:28:07;4.07;;;1.58;;
80293;SDS011;69594;43.516;1.498;2023-12-04T11:30:34;3.40;;;1.38;;
80293;SDS011;69594;43.516;1.498;2023-12-04T11:32:59;6.30;;;2.05;;
80293;SDS011;69594;43.516;1.498;2023-12-04T11:35:25;5.70;;;1.60;;
80293;SDS011;69594;43.516;1.498;2023-12-04T11:37:51;3.67;;;1.27;;
80293;SDS011;69594;43.516;1.498;2023-12-04T11:40:17;5.03;;;1.42;;
80293;SDS011;69594;43.516;1.498;2023-12-04T11:42:42;3.33;;;1.00;;
80293;SDS011;69594;43.516;1.498;2023-12-04T11:45:08;4.13;;;1.20;;
80293;SDS011;69594;43.516;1.498;2023-12-04T11:50:14;4.22;;;1.30;;
80293;SDS011;69594;43.516;1.498;2023-12-04T11:52:40;5.47;;;1.50;;
80293;SDS011;69594;43.516;1.498;2023-12-04T11:55:05;3.83;;;1.37;;
80293;SDS011;69594;43.516;1.498;2023-12-04T11:57:37;4.90;;;1.40;;
80293;SDS011;69594;43.516;1.498;2023-12-04T12:02:39;5.00;;;1.00;;
80293;SDS011;69594;43.516;1.498;2023-12-04T12:05:05;4.78;;;1.40;;
80293;SDS011;69594;43.516;1.498;2023-12-04T12:07:31;4.90;;;1.33;;
80293;SDS011;69594;43.516;1.498;2023-12-04T12:09:57;7.83;;;1.80;;
80293;SDS011;69594;43.516;1.498;2023-12-04T12:12:23;5.95;;;1.45;;
80293;SDS011;69594;43.516;1.498;2023-12-04T12:14:50;5.03;;;1.70;;
80293;SDS011;69594;43.516;1.498;2023-12-04T12:17:15;4.40;;;1.40;;
80293;SDS011;69594;43.516;1.498;2023-12-04T12:19:40;5.77;;;1.40;;
80293;SDS011;69594;43.516;1.498;2023-12-04T12:22:06;3.53;;;1.50;;
80293;SDS011;69594;43.516;1.498;2023-12-04T12:24:32;5.65;;;2.60;;
80293;SDS011;69594;43.516;1.498;2023-12-04T12:26:57;3.10;;;1.40;;
80293;SDS011;69594;43.516;1.498;2023-12-04T12:29:23;4.27;;;1.37;;
80293;SDS011;69594;43.516;1.498;2023-12-04T12:31:48;5.13;;;1.80;;
80293;SDS011;69594;43.516;1.498;2023-12-04T12:34:14;3.40;;;1.38;;
80293;SDS011;69594;43.516;1.498;2023-12-04T12:36:40;6.57;;;2.27;;
80293;SDS011;69594;43.516;1.498;2023-12-04T12:39:05;4.23;;;2.00;;
80293;SDS011;69594;43.516;1.498;2023-12-04T12:41:33;6.95;;;2.47;;
80293;SDS011;69594;43.516;1.498;2023-12-04T12:44:00;6.70;;;2.10;;
80293;SDS011;69594;43.516;1.498;2023-12-04T12:46:25;4.57;;;2.15;;
80293;SDS011;69594;43.516;1.498;2023-12-04T12:48:51;5.73;;;2.40;;
80293;SDS011;69594;43.516;1.498;2023-12-04T12:51:16;6.87;;;1.90;;
80293;SDS011;69594;43.516;1.498;2023-12-04T12:53:43;7.50;;;2.03;;
80293;SDS011;69594;43.516;1.498;2023-12-04T12:56:09;5.60;;;1.97;;
80293;SDS011;69594;43.516;1.498;2023-12-04T12:58:35;5.22;;;2.10;;
80293;SDS011;69594;43.516;1.498;2023-12-04T13:01:00;4.40;;;1.30;;
80293;SDS011;69594;43.516;1.498;2023-12-04T13:03:26;6.75;;;1.70;;
80293;SDS011;69594;43.516;1.498;2023-12-04T13:05:52;7.47;;;1.40;;
80293;SDS011;69594;43.516;1.498;2023-12-04T13:08:18;5.13;;;1.47;;
80293;SDS011;69594;43.516;1.498;2023-12-04T13:10:43;6.43;;;1.77;;
80293;SDS011;69594;43.516;1.498;2023-12-04T13:13:12;6.00;;;1.90;;
80293;SDS011;69594;43.516;1.498;2023-12-04T13:15:37;8.38;;;2.22;;
80293;SDS011;69594;43.516;1.498;2023-12-04T13:18:03;8.43;;;2.13;;
80293;SDS011;69594;43.516;1.498;2023-12-04T13:20:28;7.07;;;1.63;;
80293;SDS011;69594;43.516;1.498;2023-12-04T13:22:53;5.40;;;1.60;;
80293;SDS011;69594;43.516;1.498;2023-12-04T13:25:18;6.13;;;2.10;;
80293;SDS011;69594;43.516;1.498;2023-12-04T13:27:45;4.75;;;1.77;;
80293;SDS011;69594;43.516;1.498;2023-12-04T13:30:11;4.75;;;2.15;;
80293;SDS011;69594;43.516;1.498;2023-12-04T13:32:37;8.53;;;2.77;;
80293;SDS011;69594;43.516;1.498;2023-12-04T13:35:03;7.07;;;2.20;;
80293;SDS011;69594;43.516;1.498;2023-12-04T13:37:30;4.43;;;2.20;;
80293;SDS011;69594;43.516;1.498;2023-12-04T13:39:55;4.43;;;1.65;;
80293;SDS011;69594;43.516;1.498;2023-12-04T13:42:26;7.38;;;1.92;;
80293;SDS011;69594;43.516;1.498;2023-12-04T13:45:10;7.10;;;2.87;;
80293;SDS011;69594;43.516;1.498;2023-12-04T13:47:37;8.43;;;1.85;;
80293;SDS011;69594;43.516;1.498;2023-12-04T13:50:03;5.45;;;2.45;;
80293;SDS011;69594;43.516;1.498;2023-12-04T13:52:30;5.80;;;2.30;;
80293;SDS011;69594;43.516;1.498;2023-12-04T13:54:58;6.00;;;1.90;;
80293;SDS011;69594;43.516;1.498;2023-12-04T13:57:24;7.90;;;2.40;;
80293;SDS011;69594;43.516;1.498;2023-12-04T13:59:59;7.60;;;2.75;;
80293;SDS011;69594;43.516;1.498;2023-12-04T14:02:25;5.10;;;1.92;;
80293;SDS011;69594;43.516;1.498;2023-12-04T14:04:51;5.10;;;1.80;;
80293;SDS011;69594;43.516;1.498;2023-12-04T14:07:16;5.22;;;2.00;;
80293;SDS011;69594;43.516;1.498;2023-12-04T14:09:42;5.07;;;1.77;;
80293;SDS011;69594;43.516;1.498;2023-12-04T14:12:08;4.27;;;1.80;;
80293;SDS011;69594;43.516;1.498;2023-12-04T14:14:33;5.47;;;1.77;;
80293;SDS011;69594;43.516;1.498;2023-12-04T14:17:00;7.20;;;2.10;;
80293;SDS011;69594;43.516;1.498;2023-12-04T14:19:28;4.15;;;1.85;;
80293;SDS011;69594;43.516;1.498;2023-12-04T14:21:53;4.93;;;2.20;;
80293;SDS011;69594;43.516;1.498;2023-12-04T14:24:19;7.30;;;2.43;;
80293;SDS011;69594;43.516;1.498;2023-12-04T14:26:46;5.97;;;2.55;;
80293;SDS011;69594;43.516;1.498;2023-12-04T14:29:12;10.73;;;4.57;;
80293;SDS011;69594;43.516;1.498;2023-12-04T14:31:38;10.63;;;3.95;;
80293;SDS011;69594;43.516;1.498;2023-12-04T14:34:03;23.57;;;8.90;;
80293;SDS011;69594;43.516;1.498;2023-12-04T14:36:29;12.17;;;4.57;;
80293;SDS011;69594;43.516;1.498;2023-12-04T14:38:58;14.82;;;5.65;;
80293;SDS011;69594;43.516;1.498;2023-12-04T14:41:24;41.40;;;23.05;;